createdAt,value
2022-09-17T00:01:00.316Z,25.10
2022-09-17T00:06:09.511Z,25.30
2022-09-17T00:11:24.046Z,25.30
2022-09-17T00:16:36.116Z,25.50
2022-09-17T00:21:43.341Z,25.80
2022-09-17T00:26:50.186Z,26.20
2022-09-17T00:31:55.882Z,26.30
2022-09-17T00:37:01.325Z,26.40
2022-09-17T00:42:12.283Z,26.50
2022-09-17T00:47:32.903Z,26.50
2022-09-17T00:53:07.019Z,26.90
2022-09-17T00:58:14.919Z,27.30
2022-09-17T01:03:21.010Z,27.50
2022-09-17T01:08:41.140Z,27.70
2022-09-17T01:14:13.467Z,27.50
2022-09-17T01:19:45.684Z,27.70
2022-09-17T01:25:05.679Z,27.90
2022-09-17T01:30:30.879Z,28.60
2022-09-17T01:35:52.244Z,29.10
2022-09-17T01:41:11.141Z,28.60
2022-09-17T01:46:32.245Z,28.40
2022-09-17T01:51:44.960Z,28.70
2022-09-17T01:56:58.818Z,29.30
2022-09-17T02:02:13.713Z,30.40
2022-09-17T02:07:25.456Z,31.60
2022-09-17T02:12:36.852Z,32.40
2022-09-17T02:17:58.477Z,32.40
2022-09-17T02:23:11.151Z,32.40
2022-09-17T02:28:27.060Z,32.60
2022-09-17T02:33:33.339Z,32.80
2022-09-17T02:38:41.511Z,33.10
2022-09-17T02:44:02.295Z,33.40
2022-09-17T02:49:17.280Z,32.90
2022-09-17T02:54:38.867Z,33.20
2022-09-17T03:00:04.625Z,33.30
2022-09-17T03:05:12.028Z,33.60
2022-09-17T03:10:17.927Z,33.90
2022-09-17T03:15:24.023Z,33.50
2022-09-17T03:20:30.234Z,33.10
2022-09-17T03:25:36.258Z,32.70
2022-09-17T03:30:42.313Z,32.30
2022-09-17T03:35:49.376Z,32.20
2022-09-17T03:41:02.950Z,32.10
2022-09-17T03:46:09.479Z,32.00
2022-09-17T03:51:15.684Z,31.90
2022-09-17T03:56:22.297Z,31.30
2022-09-17T04:01:28.942Z,31.00
2022-09-17T04:06:35.165Z,30.80
2022-09-17T04:11:41.252Z,30.60
2022-09-17T04:16:50.504Z,30.50
2022-09-17T04:21:56.439Z,30.50
2022-09-17T04:27:02.372Z,30.70
2022-09-17T04:32:08.410Z,30.80
2022-09-17T04:37:15.494Z,30.90
2022-09-17T04:42:21.258Z,30.70
2022-09-17T04:47:27.695Z,31.30
2022-09-17T04:52:33.974Z,32.00
2022-09-17T04:57:40.622Z,32.30
2022-09-17T05:02:50.689Z,33.00
2022-09-17T05:07:56.319Z,33.40
2022-09-17T05:13:01.643Z,33.50
2022-09-17T05:18:07.582Z,33.50
2022-09-17T05:23:13.145Z,33.30
2022-09-17T05:28:18.223Z,33.40
2022-09-17T05:33:24.116Z,33.30
2022-09-17T05:38:30.537Z,32.80
2022-09-17T05:43:39.447Z,32.90
2022-09-17T05:48:45.959Z,32.60
2022-09-17T05:53:52.051Z,32.50
2022-09-17T05:59:00.872Z,32.50
2022-09-17T06:04:06.905Z,32.40
2022-09-17T06:09:13.442Z,32.40
2022-09-17T06:14:19.553Z,32.30
2022-09-17T06:19:26.182Z,32.10
2022-09-17T06:24:31.851Z,32.10
2022-09-17T06:29:37.847Z,32.30
2022-09-17T06:34:44.151Z,32.20
2022-09-17T06:39:50.489Z,32.10
2022-09-17T06:44:57.450Z,32.40
2022-09-17T06:50:04.748Z,32.60
2022-09-17T06:55:11.006Z,32.00
2022-09-17T07:00:17.850Z,31.80
2022-09-17T07:05:24.128Z,31.60
2022-09-17T07:10:30.292Z,31.80
2022-09-17T07:15:36.222Z,32.00
2022-09-17T07:20:42.167Z,32.30
2022-09-17T07:25:53.049Z,32.60
2022-09-17T07:30:59.496Z,32.60
2022-09-17T07:36:08.861Z,32.10
2022-09-17T07:41:17.728Z,31.90
2022-09-17T07:46:23.746Z,31.50
2022-09-17T07:51:30.676Z,31.30
2022-09-17T07:56:37.267Z,31.70
2022-09-17T08:01:43.053Z,32.00
2022-09-17T08:06:52.412Z,31.90
2022-09-17T08:11:58.356Z,31.90
2022-09-17T08:17:04.261Z,32.10
2022-09-17T08:22:10.144Z,32.50
2022-09-17T08:27:16.130Z,33.10
2022-09-17T08:32:21.952Z,32.80
2022-09-17T08:37:28.208Z,32.80
2022-09-17T08:42:41.187Z,32.20
2022-09-17T08:47:48.437Z,31.80
2022-09-17T08:53:07.994Z,31.50
2022-09-17T08:58:32.247Z,31.60
2022-09-17T09:04:16.540Z,31.70
2022-09-17T09:09:27.612Z,31.70
2022-09-17T09:14:50.312Z,31.60
2022-09-17T09:19:56.679Z,31.30
2022-09-17T09:25:26.128Z,30.90
2022-09-17T09:30:57.824Z,30.70
2022-09-17T09:36:04.184Z,30.50
2022-09-17T09:41:30.048Z,30.30
2022-09-17T09:46:38.193Z,30.20
2022-09-17T09:51:52.779Z,30.00
2022-09-17T09:57:13.211Z,29.80
2022-09-17T10:02:18.984Z,29.60
2022-09-17T10:07:24.669Z,29.40
2022-09-17T10:12:30.580Z,29.30
2022-09-17T10:17:37.055Z,29.30
2022-09-17T10:22:47.857Z,29.20
2022-09-17T10:27:54.407Z,29.10
2022-09-17T10:33:25.200Z,29.00
2022-09-17T10:38:45.918Z,28.90
2022-09-17T10:43:52.955Z,28.80
2022-09-17T10:49:37.638Z,28.70
2022-09-17T10:54:59.118Z,28.70
2022-09-17T11:00:20.863Z,28.70
2022-09-17T11:05:36.118Z,28.60
2022-09-17T11:10:53.384Z,28.60
2022-09-17T11:16:12.300Z,28.50
2022-09-17T11:21:59.159Z,28.50
2022-09-17T11:27:21.498Z,28.40
2022-09-17T11:32:36.348Z,28.30
2022-09-17T11:38:08.601Z,28.30
2022-09-17T11:43:38.381Z,28.30
2022-09-17T11:49:07.385Z,28.40
2022-09-17T11:54:33.913Z,28.40
2022-09-17T12:00:03.935Z,28.40
2022-09-17T12:05:32.327Z,28.30
2022-09-17T12:10:43.154Z,28.40
2022-09-17T12:15:54.515Z,28.40
2022-09-17T12:21:04.095Z,28.40
2022-09-17T12:26:26.170Z,28.40
2022-09-17T12:31:48.152Z,28.40
2022-09-17T12:37:31.262Z,28.30
2022-09-17T12:43:04.602Z,28.20
2022-09-17T12:48:38.326Z,28.20
2022-09-17T12:54:12.928Z,28.20
2022-09-17T12:59:24.554Z,28.10
2022-09-17T13:05:01.547Z,28.20
2022-09-17T13:10:20.182Z,28.10
2022-09-17T13:15:49.427Z,28.20
2022-09-17T13:21:26.605Z,28.10
2022-09-17T13:26:41.851Z,28.10
2022-09-17T13:31:50.466Z,28.10
2022-09-17T13:37:06.200Z,28.10
2022-09-17T13:42:29.799Z,28.10
2022-09-17T13:47:40.817Z,28.10
2022-09-17T13:52:53.273Z,28.10
2022-09-17T13:57:59.544Z,28.00
2022-09-17T14:03:32.825Z,28.00
2022-09-17T14:08:53.994Z,28.00
2022-09-17T14:14:05.979Z,27.90
2022-09-17T14:19:42.512Z,27.90
2022-09-17T14:24:55.030Z,27.90
2022-09-17T14:30:16.290Z,27.90
2022-09-17T14:35:34.565Z,27.90
2022-09-17T14:40:47.426Z,27.90
2022-09-17T14:45:55.698Z,27.80
2022-09-17T14:51:20.482Z,27.90
2022-09-17T14:56:26.188Z,27.90
2022-09-17T15:01:32.562Z,27.90
2022-09-17T15:06:38.296Z,27.90
2022-09-17T15:11:45.443Z,27.80
2022-09-17T15:16:56.964Z,27.80
2022-09-17T15:22:18.311Z,27.80
2022-09-17T15:27:50.518Z,27.90
2022-09-17T15:32:58.826Z,27.90
2022-09-17T15:38:23.220Z,27.80
2022-09-17T15:43:31.577Z,27.80
2022-09-17T15:48:41.166Z,27.60
2022-09-17T15:54:12.163Z,27.60
2022-09-17T15:59:27.769Z,27.60
2022-09-17T16:04:35.594Z,27.60
2022-09-17T16:09:45.650Z,27.60
2022-09-17T16:15:04.783Z,27.40
2022-09-17T16:20:21.527Z,27.30
2022-09-17T16:25:30.650Z,27.20
2022-09-17T16:30:36.663Z,27.20
2022-09-17T16:35:42.351Z,27.10
2022-09-17T16:40:49.212Z,27.10
2022-09-17T16:46:06.242Z,27.10
2022-09-17T16:51:13.650Z,27.00
2022-09-17T16:56:19.621Z,26.90
2022-09-17T17:01:25.313Z,26.90
2022-09-17T17:06:31.374Z,26.90
2022-09-17T17:11:37.319Z,26.90
2022-09-17T17:16:45.234Z,26.80
2022-09-17T17:21:54.450Z,26.80
2022-09-17T17:27:00.302Z,26.80
2022-09-17T17:32:07.517Z,26.80
2022-09-17T17:37:15.866Z,26.90
2022-09-17T17:42:22.068Z,27.10
2022-09-17T17:47:28.066Z,27.10
2022-09-17T17:52:33.987Z,27.20
2022-09-17T17:57:40.148Z,27.10
2022-09-17T18:02:46.360Z,27.10
2022-09-17T18:07:52.149Z,27.10
2022-09-17T18:12:57.232Z,27.00
2022-09-17T18:18:05.014Z,27.00
2022-09-17T18:23:12.155Z,27.00
2022-09-17T18:28:17.890Z,27.00
2022-09-17T18:33:26.921Z,27.00
2022-09-17T18:38:34.117Z,27.00
2022-09-17T18:43:39.994Z,27.00
2022-09-17T18:48:47.216Z,27.00
2022-09-17T18:53:54.710Z,27.00
2022-09-17T18:59:05.662Z,26.90
2022-09-17T19:04:14.006Z,26.90
2022-09-17T19:09:20.343Z,26.90
2022-09-17T19:14:26.155Z,26.80
2022-09-17T19:19:31.797Z,26.80
2022-09-17T19:24:36.921Z,26.80
2022-09-17T19:29:42.519Z,26.90
2022-09-17T19:34:47.815Z,26.80
2022-09-17T19:39:53.727Z,26.80
2022-09-17T19:44:59.386Z,26.80
2022-09-17T19:50:04.480Z,26.80
2022-09-17T19:55:12.965Z,26.80
2022-09-17T20:00:19.018Z,26.80
2022-09-17T20:05:24.885Z,26.80
2022-09-17T20:10:33.697Z,26.70
2022-09-17T20:15:39.331Z,26.70
2022-09-17T20:20:45.345Z,26.70
2022-09-17T20:25:56.946Z,26.70
2022-09-17T20:31:15.205Z,26.80
2022-09-17T20:36:23.437Z,26.80
2022-09-17T20:41:33.268Z,26.80
2022-09-17T20:46:39.202Z,26.80
2022-09-17T20:51:45.118Z,26.70
2022-09-17T20:56:50.480Z,26.70
2022-09-17T21:01:57.627Z,26.70
2022-09-17T21:07:03.546Z,26.70
2022-09-17T21:12:09.469Z,26.60
2022-09-17T21:17:15.247Z,26.60
2022-09-17T21:22:21.154Z,26.70
2022-09-17T21:27:26.794Z,26.80
2022-09-17T21:32:31.795Z,26.80
2022-09-17T21:37:37.759Z,26.80
2022-09-17T21:42:43.382Z,26.80
2022-09-17T21:47:49.312Z,26.70
2022-09-17T21:52:54.875Z,26.60
2022-09-17T21:58:01.165Z,26.60
2022-09-17T22:03:07.694Z,26.50
2022-09-17T22:08:13.287Z,26.50
2022-09-17T22:13:19.204Z,26.50
2022-09-17T22:18:24.776Z,26.50
2022-09-17T22:23:30.365Z,26.50
2022-09-17T22:28:37.164Z,26.50
2022-09-17T22:33:46.442Z,26.50
2022-09-17T22:38:54.723Z,26.40
2022-09-17T22:44:05.854Z,26.40
2022-09-17T22:49:13.649Z,26.40
2022-09-17T22:54:20.727Z,26.40
2022-09-17T22:59:26.674Z,26.40
2022-09-17T23:04:32.292Z,26.50
2022-09-17T23:09:38.098Z,26.50
2022-09-17T23:14:43.661Z,26.70
2022-09-17T23:19:49.526Z,26.80
2022-09-17T23:24:55.578Z,26.90
2022-09-17T23:30:01.132Z,27.00
2022-09-17T23:35:06.954Z,27.10
2022-09-17T23:40:13.012Z,27.20
2022-09-17T23:45:22.452Z,27.40
2022-09-17T23:50:28.445Z,27.60
2022-09-17T23:55:33.974Z,27.70
